createdAt,value
2017-07-04T00:02:03.969Z,51.8
2017-07-04T00:07:03.526Z,51.9
2017-07-04T00:12:03.303Z,51.9
2017-07-04T00:17:03.965Z,51.8
2017-07-04T00:22:03.935Z,51.8
2017-07-04T00:27:03.653Z,51.8
2017-07-04T00:32:03.259Z,51.8
2017-07-04T00:37:03.904Z,51.8
2017-07-04T00:42:03.605Z,51.8
2017-07-04T00:47:03.307Z,51.8
2017-07-04T00:52:03.839Z,51.7
2017-07-04T00:57:03.601Z,51.7
2017-07-04T01:02:03.290Z,51.7
2017-07-04T01:07:03.186Z,51.7
2017-07-04T01:12:03.855Z,51.8
2017-07-04T01:17:03.493Z,51.8
2017-07-04T01:22:03.675Z,51.7
2017-07-04T01:27:03.352Z,51.7
2017-07-04T01:32:04.215Z,51.7
2017-07-04T01:37:03.642Z,51.6
2017-07-04T01:42:03.299Z,51.3
2017-07-04T01:47:03.866Z,51.4
2017-07-04T01:52:03.099Z,51.4
2017-07-04T01:57:03.652Z,51.3
2017-07-04T02:02:03.285Z,51.3
2017-07-04T02:07:03.605Z,51.2
2017-07-04T02:12:03.449Z,51.4
2017-07-04T02:17:03.358Z,51.3
2017-07-04T02:22:03.224Z,51.4
2017-07-04T02:27:03.948Z,51.4
2017-07-04T02:32:03.121Z,51.8
2017-07-04T02:37:03.456Z,51.7
2017-07-04T02:42:03.673Z,51.8
2017-07-04T02:47:11.183Z,52.1
2017-07-04T02:52:03.368Z,52.0
2017-07-04T02:57:03.813Z,52.1
2017-07-04T03:02:24.489Z,52.1
2017-07-04T03:07:03.822Z,52.1
2017-07-04T03:12:03.428Z,52.2
2017-07-04T03:17:28.468Z,52.2
2017-07-04T03:22:03.697Z,52.1
2017-07-04T03:27:03.324Z,52.2
2017-07-04T03:32:23.863Z,52.2
2017-07-04T03:37:03.315Z,51.9
2017-07-04T03:42:03.718Z,52.0
2017-07-04T03:47:21.724Z,51.8
2017-07-04T03:52:03.564Z,51.8
2017-07-04T03:57:03.826Z,51.7
2017-07-04T04:02:21.784Z,51.8
2017-07-04T04:07:03.727Z,51.7
2017-07-04T04:12:03.260Z,51.5
2017-07-04T04:17:22.403Z,51.5
2017-07-04T04:22:03.238Z,51.5
2017-07-04T04:27:03.673Z,51.6
2017-07-04T04:32:22.319Z,51.6
2017-07-04T04:37:03.762Z,51.3
2017-07-04T04:42:03.072Z,51.0
2017-07-04T04:47:28.433Z,51.0
2017-07-04T04:52:02.989Z,50.9
2017-07-04T04:57:03.371Z,51.0
2017-07-04T05:02:23.286Z,51.0
2017-07-04T05:07:03.817Z,51.0
2017-07-04T05:12:03.397Z,51.0
2017-07-04T05:17:24.369Z,51.3
2017-07-04T05:22:03.264Z,51.3
2017-07-04T05:27:03.652Z,51.3
2017-07-04T05:32:24.100Z,51.5
2017-07-04T05:37:03.875Z,51.4
2017-07-04T05:42:03.231Z,51.3
2017-07-04T05:47:29.013Z,50.9
2017-07-04T05:52:03.542Z,51.0
2017-07-04T05:57:03.820Z,51.0
2017-07-04T06:02:28.035Z,51.2
2017-07-04T06:07:03.604Z,51.5
2017-07-04T06:12:03.234Z,51.5
2017-07-04T06:17:28.676Z,51.6
2017-07-04T06:22:03.112Z,51.6
2017-07-04T06:27:03.567Z,51.9
2017-07-04T06:32:24.137Z,51.9
2017-07-04T06:37:03.094Z,51.9
2017-07-04T06:42:03.555Z,51.9
2017-07-04T06:47:35.945Z,51.5
2017-07-04T06:52:03.737Z,51.5
2017-07-04T06:57:03.216Z,51.5
2017-07-04T07:02:28.217Z,51.5
2017-07-04T07:07:03.438Z,51.5
2017-07-04T07:12:03.465Z,51.5
2017-07-04T07:17:34.550Z,51.7
2017-07-04T07:22:03.598Z,51.7
2017-07-04T07:27:03.921Z,51.8
2017-07-04T07:32:23.840Z,51.8
2017-07-04T07:37:03.838Z,51.6
2017-07-04T07:42:03.222Z,51.1
2017-07-04T07:47:28.569Z,51.1
2017-07-04T07:52:03.859Z,51.2
2017-07-04T07:57:03.217Z,51.2
2017-07-04T08:02:28.043Z,51.3
2017-07-04T08:07:03.660Z,51.5
2017-07-04T08:12:03.117Z,52.0
2017-07-04T08:17:24.034Z,51.6
2017-07-04T08:22:03.506Z,52.3
2017-07-04T08:27:03.266Z,52.9
2017-07-04T08:32:27.831Z,52.5
2017-07-04T08:37:03.100Z,52.5
2017-07-04T08:42:03.481Z,52.0
2017-07-04T08:47:29.023Z,51.8
2017-07-04T08:52:03.110Z,51.8
2017-07-04T08:57:03.198Z,51.9
2017-07-04T09:02:28.246Z,51.8
2017-07-04T09:07:03.886Z,53.1
2017-07-04T09:12:03.427Z,53.2
2017-07-04T09:17:28.889Z,53.6
2017-07-04T09:22:03.120Z,53.3
2017-07-04T09:27:03.589Z,52.2
2017-07-04T09:32:28.383Z,51.9
2017-07-04T09:37:03.948Z,51.7
2017-07-04T09:42:03.427Z,51.9
2017-07-04T09:47:28.630Z,51.4
2017-07-04T09:52:03.021Z,52.2
2017-07-04T09:57:03.511Z,53.0
2017-07-04T10:02:25.926Z,52.7
2017-07-04T10:07:03.747Z,52.7
2017-07-04T10:12:03.467Z,52.5
2017-07-04T10:17:28.921Z,52.4
2017-07-04T10:22:03.112Z,52.5
2017-07-04T10:27:03.604Z,52.5
2017-07-04T10:32:28.124Z,52.1
2017-07-04T10:37:03.591Z,52.1
2017-07-04T10:42:03.908Z,52.6
2017-07-04T10:47:28.668Z,53.3
2017-07-04T10:52:03.171Z,52.7
2017-07-04T10:57:03.129Z,51.9
2017-07-04T11:02:27.400Z,52.3
2017-07-04T11:07:03.809Z,52.8
2017-07-04T11:12:03.385Z,52.8
2017-07-04T11:17:28.947Z,52.6
2017-07-04T11:22:03.072Z,53.0
2017-07-04T11:27:03.507Z,52.7
2017-07-04T11:32:31.211Z,52.4
2017-07-04T11:37:03.877Z,52.3
2017-07-04T11:42:03.080Z,53.1
2017-07-04T11:47:26.640Z,52.3
2017-07-04T11:52:03.685Z,52.3
2017-07-04T11:57:02.979Z,52.9
2017-07-04T12:02:31.010Z,52.8
2017-07-04T12:07:03.937Z,52.4
2017-07-04T12:12:03.597Z,52.4
2017-07-04T12:17:29.078Z,52.6
2017-07-04T12:22:03.343Z,51.9
2017-07-04T12:27:03.825Z,52.1
2017-07-04T12:32:23.630Z,51.9
2017-07-04T12:37:03.967Z,51.9
2017-07-04T12:42:03.113Z,51.3
2017-07-04T12:47:28.612Z,51.4
2017-07-04T12:52:03.018Z,52.2
2017-07-04T12:57:03.804Z,52.2
2017-07-04T13:02:24.787Z,52.1
2017-07-04T13:07:03.477Z,51.8
2017-07-04T13:12:04.007Z,52.7
2017-07-04T13:17:23.744Z,52.5
2017-07-04T13:22:03.732Z,51.8
2017-07-04T13:27:03.136Z,51.8
2017-07-04T13:32:23.648Z,53.0
2017-07-04T13:37:03.883Z,53.6
2017-07-04T13:42:03.379Z,53.3
2017-07-04T13:47:28.778Z,52.5
2017-07-04T13:52:03.835Z,52.5
2017-07-04T13:57:03.214Z,51.9
2017-07-04T14:02:21.958Z,52.1
2017-07-04T14:07:03.143Z,51.9
2017-07-04T14:12:03.687Z,52.2
2017-07-04T14:17:21.876Z,52.2
2017-07-04T14:22:03.836Z,52.8
2017-07-04T14:27:03.210Z,52.8
2017-07-04T14:32:23.642Z,52.5
2017-07-04T14:37:03.832Z,50.4
2017-07-04T14:42:03.204Z,51.2
2017-07-04T14:47:22.136Z,52.3
2017-07-04T14:52:03.740Z,52.3
2017-07-04T14:57:03.137Z,50.4
2017-07-04T15:02:28.958Z,42.7
2017-07-04T15:07:03.523Z,42.6
2017-07-04T15:12:03.930Z,39.7
2017-07-04T15:17:24.002Z,40.5
2017-07-04T15:22:03.828Z,38.2
2017-07-04T15:27:03.130Z,41.7
2017-07-04T15:32:22.011Z,42.4
2017-07-04T15:37:03.257Z,42.3
2017-07-04T15:42:03.606Z,43.2
2017-07-04T15:47:27.527Z,47.0
2017-07-04T15:52:03.137Z,49.9
2017-07-04T15:57:03.548Z,50.7
2017-07-04T16:02:24.295Z,50.5
2017-07-04T16:07:03.680Z,50.6
2017-07-04T16:12:03.228Z,50.4
2017-07-04T16:17:24.912Z,50.8
2017-07-04T16:22:03.499Z,50.4
2017-07-04T16:27:03.801Z,51.3
2017-07-04T16:32:25.977Z,51.3
2017-07-04T16:37:03.095Z,51.4
2017-07-04T16:42:03.403Z,51.0
2017-07-04T16:47:20.221Z,51.2
2017-07-04T16:52:03.735Z,50.5
2017-07-04T16:57:03.077Z,38.6
2017-07-04T17:02:20.372Z,36.0
2017-07-04T17:07:03.581Z,35.5
2017-07-04T17:12:03.206Z,35.5
2017-07-04T17:17:16.445Z,35.9
2017-07-04T17:22:03.097Z,39.0
2017-07-04T17:27:03.422Z,38.9
2017-07-04T17:32:16.764Z,41.7
2017-07-04T17:37:03.857Z,43.6
2017-07-04T17:42:03.122Z,39.3
2017-07-04T17:47:15.587Z,39.2
2017-07-04T17:52:03.786Z,39.1
2017-07-04T17:57:03.066Z,39.1
2017-07-04T18:02:13.241Z,39.8
2017-07-04T18:07:03.208Z,39.8
2017-07-04T18:12:03.601Z,41.5
2017-07-04T18:17:20.939Z,41.5
2017-07-04T18:22:03.281Z,41.7
2017-07-04T18:27:03.678Z,46.2
2017-07-04T18:32:04.925Z,51.4
2017-07-04T18:37:03.213Z,52.0
2017-07-04T18:42:03.559Z,51.9
2017-07-04T18:47:27.609Z,52.6
2017-07-04T18:52:03.880Z,52.5
2017-07-04T18:57:03.361Z,52.5
2017-07-04T19:02:25.123Z,52.5
2017-07-04T19:07:03.396Z,52.3
2017-07-04T19:12:03.781Z,52.2
2017-07-04T19:17:18.143Z,52.1
2017-07-04T19:22:03.506Z,52.1
2017-07-04T19:27:03.744Z,52.4
2017-07-04T19:32:29.494Z,52.4
2017-07-04T19:37:03.836Z,52.4
2017-07-04T19:42:03.554Z,53.0
2017-07-04T19:47:24.367Z,52.7
2017-07-04T19:52:03.217Z,52.7
2017-07-04T19:57:03.435Z,52.6
2017-07-04T20:02:25.296Z,52.7
2017-07-04T20:07:03.553Z,52.5
2017-07-04T20:12:03.939Z,52.6
2017-07-04T20:17:10.782Z,52.5
2017-07-04T20:22:03.708Z,52.5
2017-07-04T20:27:03.105Z,52.3
2017-07-04T20:32:10.661Z,52.1
2017-07-04T20:37:03.971Z,52.1
2017-07-04T20:42:03.340Z,51.9
2017-07-04T20:47:03.991Z,51.9
2017-07-04T20:52:03.259Z,51.9
2017-07-04T20:57:03.389Z,51.9
2017-07-04T21:02:03.334Z,52.0
2017-07-04T21:07:03.724Z,51.8
2017-07-04T21:12:03.252Z,51.8
2017-07-04T21:17:03.553Z,51.9
2017-07-04T21:22:03.733Z,51.9
2017-07-04T21:27:03.197Z,51.7
2017-07-04T21:32:03.759Z,51.6
2017-07-04T21:37:03.640Z,51.6
2017-07-04T21:42:03.891Z,51.7
2017-07-04T21:47:03.512Z,51.7
2017-07-04T21:52:03.642Z,51.7
2017-07-04T21:57:03.916Z,51.6
2017-07-04T22:02:03.653Z,51.5
2017-07-04T22:07:03.765Z,51.4
2017-07-04T22:12:03.588Z,51.4
2017-07-04T22:22:04.091Z,51.1
2017-07-04T22:27:03.854Z,51.4
2017-07-04T22:32:04.046Z,51.4
2017-07-04T22:37:03.628Z,51.3
2017-07-04T22:42:03.659Z,51.2
2017-07-04T22:47:03.803Z,51.2
2017-07-04T22:52:03.471Z,51.2
2017-07-04T22:57:03.478Z,51.5
2017-07-04T23:02:03.682Z,51.3
2017-07-04T23:07:03.584Z,51.2
2017-07-04T23:12:03.551Z,51.2
2017-07-04T23:17:03.949Z,51.2
2017-07-04T23:22:03.878Z,51.2
2017-07-04T23:27:03.107Z,51.3
2017-07-04T23:32:03.231Z,51.3
2017-07-04T23:37:03.474Z,51.2
2017-07-04T23:42:03.491Z,51.3
2017-07-04T23:47:03.483Z,51.2
2017-07-04T23:52:03.620Z,51.2
2017-07-04T23:57:03.719Z,51.2
